Terminal Aerodrome Forecast
Issued by NWS

Home | Current Version | Previous Version | Graphics & Text | Print | Product List | Glossary On
Versions: 1 2 3 4 5 6 7 8 9 10 11 12 13 14 15 16 17
000
FTUS43 KIWX 132206 AAA
TAFSBN
TAF AMD
KSBN 132206Z 1322/1418 21013G20KT 2SM -SN BR OVC006
      TEMPO 1322/1402 1SM -SN BR
     FM140200 34016G22KT P6SM -SN OVC025
     FM140800 35010KT P6SM BKN040=

USA.gov is the U.S. government's official web portal to all federal, state and local government web resources and services.